createdAt,value
2023-06-22T00:01:54.904Z,94620.00
2023-06-22T00:04:21.052Z,94621.60
2023-06-22T00:06:47.251Z,94626.40
2023-06-22T00:09:13.358Z,94625.80
2023-06-22T00:11:39.516Z,94620.60
2023-06-22T00:14:05.630Z,94619.40
2023-06-22T00:16:31.802Z,94621.40
2023-06-22T00:19:00.901Z,94624.20
2023-06-22T00:21:26.981Z,94625.80
2023-06-22T00:23:53.288Z,94619.40
2023-06-22T00:26:19.539Z,94617.20
2023-06-22T00:28:45.641Z,94614.40
2023-06-22T00:31:11.823Z,94620.60
2023-06-22T00:33:38.031Z,94621.60
2023-06-22T00:36:04.160Z,94621.60
2023-06-22T00:38:30.465Z,94617.80
2023-06-22T00:40:56.585Z,94608.80
2023-06-22T00:43:22.785Z,94608.00
2023-06-22T00:45:48.920Z,94617.80
2023-06-22T00:48:15.257Z,94618.00
2023-06-22T00:50:41.338Z,94613.40
2023-06-22T00:53:08.628Z,94614.20
2023-06-22T00:55:37.810Z,94610.80
2023-06-22T00:58:06.056Z,94607.80
2023-06-22T01:00:33.237Z,94610.00
2023-06-22T01:02:59.561Z,94612.00
2023-06-22T01:05:25.834Z,94612.20
2023-06-22T01:07:53.473Z,94605.40
2023-06-22T01:10:19.633Z,94598.00
2023-06-22T01:12:45.876Z,94598.60
2023-06-22T01:15:12.032Z,94604.60
2023-06-22T01:17:38.367Z,94604.40
2023-06-22T01:20:07.383Z,94601.80
2023-06-22T01:22:33.510Z,94594.60
2023-06-22T01:24:59.800Z,94593.80
2023-06-22T01:27:25.907Z,94589.00
2023-06-22T01:29:52.012Z,94589.20
2023-06-22T01:32:18.208Z,94590.40
2023-06-22T01:34:44.366Z,94585.80
2023-06-22T01:37:10.554Z,94584.20
2023-06-22T01:39:36.727Z,94583.60
2023-06-22T01:42:02.899Z,94573.80
2023-06-22T01:44:29.015Z,94566.40
2023-06-22T01:46:55.183Z,94562.00
2023-06-22T01:49:21.863Z,94570.00
2023-06-22T01:51:47.954Z,94570.00
2023-06-22T01:54:14.094Z,94574.80
2023-06-22T01:56:40.186Z,94576.60
2023-06-22T01:59:06.592Z,94576.40
2023-06-22T02:01:32.786Z,94577.60
2023-06-22T02:03:59.104Z,94585.20
2023-06-22T02:06:25.393Z,94590.00
2023-06-22T02:08:51.578Z,94587.20
2023-06-22T02:11:17.648Z,94584.00
2023-06-22T02:13:43.858Z,94587.60
2023-06-22T02:16:10.013Z,94603.60
2023-06-22T02:18:36.653Z,94599.40
2023-06-22T02:21:02.915Z,94592.60
2023-06-22T02:23:29.122Z,94598.00
2023-06-22T02:25:55.408Z,94611.20
2023-06-22T02:28:21.626Z,94612.20
2023-06-22T02:30:47.802Z,94613.60
2023-06-22T02:33:13.963Z,94613.60
2023-06-22T02:35:40.277Z,94615.00
2023-06-22T02:38:06.456Z,94617.00
2023-06-22T02:40:32.591Z,94621.80
2023-06-22T02:43:02.163Z,94623.20
2023-06-22T02:45:28.315Z,94623.00
2023-06-22T02:47:54.532Z,94624.20
2023-06-22T02:50:20.699Z,94624.00
2023-06-22T02:52:46.979Z,94618.00
2023-06-22T02:55:13.111Z,94618.80
2023-06-22T02:57:44.018Z,94619.60
2023-06-22T03:00:17.248Z,94622.00
2023-06-22T03:02:43.958Z,94624.40
2023-06-22T03:05:13.833Z,94625.00
2023-06-22T03:07:40.055Z,94631.00
2023-06-22T03:10:06.186Z,94633.60
2023-06-22T03:12:32.296Z,94631.00
2023-06-22T03:14:58.639Z,94631.20
2023-06-22T03:17:24.868Z,94633.00
2023-06-22T03:19:51.238Z,94633.80
2023-06-22T03:22:17.365Z,94636.20
2023-06-22T03:24:43.548Z,94641.80
2023-06-22T03:27:09.787Z,94643.60
2023-06-22T03:29:36.000Z,94640.20
2023-06-22T03:32:02.378Z,94636.60
2023-06-22T03:34:28.774Z,94639.00
2023-06-22T03:36:54.934Z,94643.40
2023-06-22T03:39:21.118Z,94643.20
2023-06-22T03:41:47.294Z,94651.00
2023-06-22T03:44:13.499Z,94649.80
2023-06-22T03:46:39.615Z,94650.60
2023-06-22T03:49:06.013Z,94647.40
2023-06-22T03:51:32.216Z,94645.00
2023-06-22T03:53:58.280Z,94648.20
2023-06-22T03:56:24.465Z,94652.00
2023-06-22T03:58:51.222Z,94656.20
2023-06-22T04:01:17.520Z,94657.60
2023-06-22T04:03:44.006Z,94655.60
2023-06-22T04:06:10.267Z,94658.20
2023-06-22T04:08:36.404Z,94656.80
2023-06-22T04:11:02.543Z,94653.00
2023-06-22T04:13:28.802Z,94656.80
2023-06-22T04:15:54.934Z,94657.40
2023-06-22T04:18:21.168Z,94655.60
2023-06-22T04:20:47.378Z,94650.60
2023-06-22T04:23:13.469Z,94654.20
2023-06-22T04:25:39.544Z,94654.40
2023-06-22T04:28:05.820Z,94656.00
2023-06-22T04:30:32.168Z,94660.60
2023-06-22T04:32:58.899Z,94657.20
2023-06-22T04:35:25.549Z,94658.40
2023-06-22T04:37:55.083Z,94660.40
2023-06-22T04:40:21.194Z,94665.00
2023-06-22T04:42:52.639Z,94663.60
2023-06-22T04:45:18.770Z,94663.40
2023-06-22T04:47:45.924Z,94661.80
2023-06-22T04:50:12.250Z,94660.00
2023-06-22T04:52:38.452Z,94659.80
2023-06-22T04:55:04.565Z,94657.00
2023-06-22T04:57:34.465Z,94657.40
2023-06-22T05:00:13.187Z,94653.40
2023-06-22T05:02:39.465Z,94654.60
2023-06-22T05:05:07.480Z,94649.20
2023-06-22T05:07:33.706Z,94653.20
2023-06-22T05:09:59.972Z,94647.40
2023-06-22T05:12:26.060Z,94652.00
2023-06-22T05:14:52.168Z,94650.20
2023-06-22T05:17:19.453Z,94655.60
2023-06-22T05:19:48.495Z,94655.80
2023-06-22T05:22:14.838Z,94655.60
2023-06-22T05:24:40.962Z,94654.00
2023-06-22T05:27:07.053Z,94659.20
2023-06-22T05:29:33.307Z,94668.00
2023-06-22T05:31:59.489Z,94672.20
2023-06-22T05:34:25.602Z,94679.60
2023-06-22T05:36:51.762Z,94682.00
2023-06-22T05:39:17.948Z,94684.00
2023-06-22T05:41:44.113Z,94689.20
2023-06-22T05:44:10.250Z,94684.60
2023-06-22T05:46:36.466Z,94678.80
2023-06-22T05:49:02.569Z,94683.00
2023-06-22T05:51:28.949Z,94677.20
2023-06-22T05:53:55.255Z,94674.40
2023-06-22T05:56:21.404Z,94669.60
2023-06-22T05:58:47.684Z,94669.40
2023-06-22T06:01:15.973Z,94669.40
2023-06-22T06:03:42.258Z,94663.80
2023-06-22T06:06:08.747Z,94669.60
2023-06-22T06:08:35.022Z,94672.00
2023-06-22T06:11:01.195Z,94670.60
2023-06-22T06:13:27.303Z,94675.40
2023-06-22T06:15:55.513Z,94681.40
2023-06-22T06:18:21.553Z,94679.00
2023-06-22T06:20:47.689Z,94674.20
2023-06-22T06:23:13.861Z,94677.20
2023-06-22T06:25:39.970Z,94677.00
2023-06-22T06:28:06.132Z,94678.00
2023-06-22T06:30:32.804Z,94679.20
2023-06-22T06:32:59.468Z,94684.20
2023-06-22T06:35:25.867Z,94678.20
2023-06-22T06:37:52.025Z,94677.00
2023-06-22T06:40:18.167Z,94684.60
2023-06-22T06:42:45.519Z,94679.60
2023-06-22T06:45:11.886Z,94676.80
2023-06-22T06:47:38.327Z,94674.00
2023-06-22T06:50:04.585Z,94671.80
2023-06-22T06:52:30.907Z,94670.00
2023-06-22T06:54:57.030Z,94670.80
2023-06-22T06:57:23.092Z,94670.20
2023-06-22T06:59:49.490Z,94670.40
2023-06-22T07:02:15.706Z,94675.60
2023-06-22T07:04:41.901Z,94680.40
2023-06-22T07:07:08.226Z,94678.80
2023-06-22T07:09:34.417Z,94682.80
2023-06-22T07:12:00.644Z,94683.40
2023-06-22T07:14:26.972Z,94684.20
2023-06-22T07:16:53.174Z,94677.80
2023-06-22T07:19:19.345Z,94674.60
2023-06-22T07:21:45.465Z,94674.20
2023-06-22T07:24:11.560Z,94675.80
2023-06-22T07:26:37.661Z,94673.00
2023-06-22T07:29:04.836Z,94667.00
2023-06-22T07:31:31.151Z,94667.00
2023-06-22T07:33:57.277Z,94662.40
2023-06-22T07:36:23.505Z,94662.40
2023-06-22T07:38:49.601Z,94660.60
2023-06-22T07:41:16.441Z,94659.60
2023-06-22T07:43:42.687Z,94658.80
2023-06-22T07:46:08.998Z,94652.60
2023-06-22T07:48:35.227Z,94656.20
2023-06-22T07:51:01.584Z,94651.20
2023-06-22T07:53:28.790Z,94653.80
2023-06-22T07:55:54.943Z,94654.80
2023-06-22T07:58:21.316Z,94654.80
2023-06-22T08:00:48.659Z,94654.20
2023-06-22T08:03:14.873Z,94653.60
2023-06-22T08:05:41.241Z,94654.80
2023-06-22T08:08:07.396Z,94657.20
2023-06-22T08:10:33.603Z,94656.40
2023-06-22T08:13:00.091Z,94664.00
2023-06-22T08:15:26.345Z,94665.60
2023-06-22T08:17:52.945Z,94666.60
2023-06-22T08:20:19.493Z,94671.40
2023-06-22T08:22:45.622Z,94665.40
2023-06-22T08:25:11.784Z,94670.20
2023-06-22T08:27:38.011Z,94677.00
2023-06-22T08:30:04.223Z,94679.40
2023-06-22T08:32:30.450Z,94678.80
2023-06-22T08:34:56.697Z,94676.40
2023-06-22T08:37:30.785Z,94675.20
2023-06-22T08:39:57.136Z,94675.40
2023-06-22T08:42:24.549Z,94678.40
2023-06-22T08:44:50.742Z,94680.60
2023-06-22T08:47:16.866Z,94681.20
2023-06-22T08:49:43.056Z,94678.20
2023-06-22T08:52:09.227Z,94678.20
2023-06-22T08:54:35.409Z,94678.80
2023-06-22T08:57:01.658Z,94676.20
2023-06-22T08:59:27.837Z,94673.40
2023-06-22T09:01:54.773Z,94673.80
2023-06-22T09:04:25.061Z,94669.20
2023-06-22T09:06:52.744Z,94672.20
2023-06-22T09:09:19.030Z,94668.20
2023-06-22T09:11:45.279Z,94671.20
2023-06-22T09:14:11.529Z,94679.00
2023-06-22T09:16:37.876Z,94680.20
2023-06-22T09:19:04.272Z,94682.40
2023-06-22T09:21:31.996Z,94682.40
2023-06-22T09:23:59.301Z,94685.20
2023-06-22T09:26:25.709Z,94680.20
2023-06-22T09:28:51.906Z,94682.60
2023-06-22T09:31:18.043Z,94683.00
2023-06-22T09:33:44.767Z,94675.20
2023-06-22T09:36:10.876Z,94667.40
2023-06-22T09:38:36.997Z,94668.80
2023-06-22T09:41:03.189Z,94669.60
2023-06-22T09:43:29.538Z,94672.20
2023-06-22T09:45:55.706Z,94668.80
2023-06-22T09:48:21.843Z,94670.40
2023-06-22T09:50:47.959Z,94670.40
2023-06-22T09:53:14.179Z,94674.00
2023-06-22T09:55:40.540Z,94676.80
2023-06-22T09:58:06.753Z,94678.40
2023-06-22T10:00:32.914Z,94670.80
2023-06-22T10:03:01.293Z,94666.40
2023-06-22T10:05:28.331Z,94667.60
2023-06-22T10:07:54.770Z,94666.00
2023-06-22T10:10:20.992Z,94672.00
2023-06-22T10:12:47.214Z,94670.60
2023-06-22T10:15:13.427Z,94671.00
2023-06-22T10:17:40.353Z,94674.60
2023-06-22T10:20:12.294Z,94671.80
2023-06-22T10:22:38.645Z,94665.20
2023-06-22T10:25:04.846Z,94663.20
2023-06-22T10:27:31.968Z,94660.40
2023-06-22T10:29:58.245Z,94661.60
2023-06-22T10:32:24.373Z,94662.60
2023-06-22T10:34:50.646Z,94662.80
2023-06-22T10:37:16.914Z,94660.00
2023-06-22T10:39:43.081Z,94667.00
2023-06-22T10:42:09.174Z,94665.60
2023-06-22T10:44:35.357Z,94669.60
2023-06-22T10:47:01.471Z,94672.80
2023-06-22T10:49:27.602Z,94673.40
2023-06-22T10:51:53.738Z,94673.00
2023-06-22T10:54:19.911Z,94667.80
2023-06-22T10:56:46.074Z,94669.40
2023-06-22T10:59:12.286Z,94658.20
2023-06-22T11:01:38.495Z,94658.60
2023-06-22T11:04:05.228Z,94664.40
2023-06-22T11:06:31.916Z,94661.80
2023-06-22T11:09:11.662Z,94657.20
2023-06-22T11:11:43.621Z,94656.40
2023-06-22T11:14:09.846Z,94653.40
2023-06-22T11:16:35.976Z,94648.80
2023-06-22T11:19:03.635Z,94641.60
2023-06-22T11:21:29.823Z,94649.80
2023-06-22T11:23:55.930Z,94649.20
2023-06-22T11:26:22.165Z,94649.80
2023-06-22T11:28:48.343Z,94647.20
2023-06-22T11:33:46.204Z,94641.60
2023-06-22T11:36:12.403Z,94638.00
2023-06-22T11:38:39.613Z,94634.60
2023-06-22T11:41:06.050Z,94628.20
2023-06-22T11:43:32.246Z,94630.20
2023-06-22T11:45:58.358Z,94632.00
2023-06-22T11:48:24.572Z,94634.40
2023-06-22T11:50:50.714Z,94635.00
2023-06-22T11:53:20.067Z,94636.00
2023-06-22T11:55:46.293Z,94627.60
2023-06-22T11:58:12.648Z,94633.80
2023-06-22T12:00:50.217Z,94630.60
2023-06-22T12:03:18.134Z,94631.20
2023-06-22T12:05:44.359Z,94630.80
2023-06-22T12:08:10.548Z,94633.20
2023-06-22T12:10:36.726Z,94627.40
2023-06-22T12:13:02.999Z,94624.60
2023-06-22T12:15:29.133Z,94626.40
2023-06-22T12:17:55.315Z,94626.60
2023-06-22T12:20:22.636Z,94620.40
2023-06-22T12:22:52.050Z,94627.60
2023-06-22T12:25:18.319Z,94628.80
2023-06-22T12:27:44.499Z,94626.60
2023-06-22T12:30:10.603Z,94620.20
2023-06-22T12:32:37.056Z,94614.40
2023-06-22T12:35:03.770Z,94616.00
2023-06-22T12:37:31.986Z,94616.60
2023-06-22T12:39:58.485Z,94621.00
2023-06-22T12:42:26.699Z,94616.80
2023-06-22T12:44:54.101Z,94620.80
2023-06-22T12:47:20.699Z,94613.00
2023-06-22T12:49:46.853Z,94615.40
2023-06-22T12:52:13.090Z,94610.80
2023-06-22T12:54:50.433Z,94603.80
2023-06-22T12:57:21.432Z,94607.80
2023-06-22T12:59:47.733Z,94605.80
2023-06-22T13:02:14.152Z,94607.60
2023-06-22T13:04:40.585Z,94598.40
2023-06-22T13:07:17.903Z,94596.40
2023-06-22T13:09:47.044Z,94588.00
2023-06-22T13:12:13.243Z,94589.00
2023-06-22T13:14:39.372Z,94581.80
2023-06-22T13:17:05.963Z,94586.80
2023-06-22T13:19:33.095Z,94585.40
2023-06-22T13:21:59.730Z,94582.40
2023-06-22T13:24:25.827Z,94577.00
2023-06-22T13:26:52.107Z,94585.00
2023-06-22T13:29:18.321Z,94585.00
2023-06-22T13:31:44.478Z,94579.60
2023-06-22T13:34:10.767Z,94578.20
2023-06-22T13:36:36.892Z,94575.60
2023-06-22T13:39:03.997Z,94578.80
2023-06-22T13:41:30.161Z,94575.00
2023-06-22T13:43:56.391Z,94576.80
2023-06-22T13:46:22.604Z,94577.80
2023-06-22T13:48:48.891Z,94576.40
2023-06-22T13:51:14.999Z,94570.40
2023-06-22T13:53:41.212Z,94572.60
2023-06-22T13:56:07.427Z,94564.40
2023-06-22T13:58:33.617Z,94567.80
2023-06-22T14:00:59.769Z,94575.40
2023-06-22T14:03:26.049Z,94573.20
2023-06-22T14:05:54.607Z,94569.00
2023-06-22T14:08:40.211Z,94568.80
2023-06-22T14:11:07.698Z,94565.80
2023-06-22T14:13:35.999Z,94572.80
2023-06-22T14:16:02.144Z,94564.40
2023-06-22T14:18:28.791Z,94564.00
2023-06-22T14:20:54.971Z,94563.20
2023-06-22T14:23:21.122Z,94561.80
2023-06-22T14:25:47.327Z,94561.20
2023-06-22T14:28:13.553Z,94566.60
2023-06-22T14:30:39.669Z,94567.00
2023-06-22T14:33:05.949Z,94566.00
2023-06-22T14:35:32.124Z,94566.80
2023-06-22T14:37:58.272Z,94571.20
2023-06-22T14:40:26.622Z,94565.80
2023-06-22T14:42:53.563Z,94563.60
2023-06-22T14:45:19.781Z,94567.20
2023-06-22T14:47:46.008Z,94570.20
2023-06-22T14:50:12.164Z,94568.40
2023-06-22T14:52:38.298Z,94562.40
2023-06-22T14:55:04.597Z,94563.80
2023-06-22T14:57:30.823Z,94563.60
2023-06-22T14:59:57.061Z,94559.40
2023-06-22T15:02:23.604Z,94557.00
2023-06-22T15:04:49.946Z,94559.60
2023-06-22T15:07:16.062Z,94561.20
2023-06-22T15:09:43.171Z,94560.20
2023-06-22T15:12:11.835Z,94554.20
2023-06-22T15:14:37.957Z,94552.80
2023-06-22T15:17:04.166Z,94553.00
2023-06-22T15:19:30.588Z,94549.80
2023-06-22T15:21:56.774Z,94548.60
2023-06-22T15:24:23.090Z,94547.60
2023-06-22T15:26:49.288Z,94547.40
2023-06-22T15:29:15.709Z,94547.00
2023-06-22T15:31:42.016Z,94548.80
2023-06-22T15:34:08.166Z,94545.60
2023-06-22T15:36:34.294Z,94544.80
2023-06-22T15:39:00.448Z,94548.40
2023-06-22T15:41:28.568Z,94552.60
2023-06-22T15:43:55.694Z,94548.80
2023-06-22T15:46:21.892Z,94548.20
2023-06-22T15:48:49.860Z,94542.60
2023-06-22T15:51:17.208Z,94541.20
2023-06-22T15:53:43.399Z,94549.20
2023-06-22T15:56:12.359Z,94552.20
2023-06-22T15:58:39.087Z,94553.20
2023-06-22T16:01:05.820Z,94554.80
2023-06-22T16:03:32.104Z,94553.20
2023-06-22T16:05:58.344Z,94550.20
2023-06-22T16:08:25.778Z,94557.00
2023-06-22T16:10:52.404Z,94556.00
2023-06-22T16:13:18.496Z,94555.60
2023-06-22T16:15:44.825Z,94548.60
2023-06-22T16:18:11.160Z,94549.20
2023-06-22T16:20:37.558Z,94548.40
2023-06-22T16:23:03.779Z,94551.00
2023-06-22T16:25:30.057Z,94549.80
2023-06-22T16:27:56.754Z,94549.00
2023-06-22T16:30:23.097Z,94548.00
2023-06-22T16:32:49.293Z,94545.40
2023-06-22T16:35:15.769Z,94548.00
2023-06-22T16:37:42.029Z,94551.40
2023-06-22T16:40:10.478Z,94548.80
2023-06-22T16:42:36.809Z,94546.60
2023-06-22T16:45:03.988Z,94546.20
2023-06-22T16:47:30.387Z,94547.40
2023-06-22T16:49:56.776Z,94546.80
2023-06-22T16:52:23.030Z,94548.20
2023-06-22T16:55:00.151Z,94549.40
2023-06-22T16:57:27.848Z,94547.40
2023-06-22T16:59:54.297Z,94550.00
2023-06-22T17:02:20.548Z,94545.60
2023-06-22T17:04:46.734Z,94549.60
2023-06-22T17:07:12.928Z,94549.20
2023-06-22T17:09:39.175Z,94549.80
2023-06-22T17:12:06.126Z,94548.20
2023-06-22T17:14:32.243Z,94551.20
2023-06-22T17:16:58.471Z,94548.00
2023-06-22T17:19:24.784Z,94546.40
2023-06-22T17:21:51.086Z,94547.80
2023-06-22T17:24:18.083Z,94547.40
2023-06-22T17:26:44.244Z,94551.20
2023-06-22T17:29:10.429Z,94549.00
2023-06-22T17:31:37.590Z,94546.20
2023-06-22T17:34:03.917Z,94543.60
2023-06-22T17:36:30.088Z,94544.20
2023-06-22T17:38:56.276Z,94545.60
2023-06-22T17:41:22.421Z,94539.40
2023-06-22T17:43:48.567Z,94534.40
2023-06-22T17:46:16.624Z,94534.40
2023-06-22T17:48:42.782Z,94535.40
2023-06-22T17:51:10.148Z,94534.40
2023-06-22T17:53:36.238Z,94531.60
2023-06-22T17:56:03.069Z,94531.80
2023-06-22T17:58:29.800Z,94534.00
2023-06-22T18:00:56.020Z,94532.00
2023-06-22T18:03:22.309Z,94532.40
2023-06-22T18:05:48.734Z,94534.60
2023-06-22T18:08:16.240Z,94526.80
2023-06-22T18:10:42.455Z,94528.20
2023-06-22T18:13:08.617Z,94519.00
2023-06-22T18:15:35.663Z,94516.00
2023-06-22T18:18:02.070Z,94518.60
2023-06-22T18:20:29.301Z,94513.20
2023-06-22T18:22:55.514Z,94509.40
2023-06-22T18:25:21.699Z,94508.20
2023-06-22T18:27:47.872Z,94505.40
2023-06-22T18:30:13.990Z,94506.40
2023-06-22T18:32:40.755Z,94509.40
2023-06-22T18:35:07.093Z,94506.40
2023-06-22T18:37:33.352Z,94509.40
2023-06-22T18:39:59.560Z,94507.40
2023-06-22T18:42:25.802Z,94510.80
2023-06-22T18:44:51.937Z,94517.20
2023-06-22T18:47:18.159Z,94515.20
2023-06-22T18:49:44.310Z,94518.20
2023-06-22T18:52:10.442Z,94520.40
2023-06-22T18:54:36.622Z,94526.00
2023-06-22T18:57:03.571Z,94525.00
2023-06-22T18:59:29.810Z,94523.60
2023-06-22T19:01:56.006Z,94522.40
2023-06-22T19:04:22.319Z,94521.00
2023-06-22T19:06:48.432Z,94523.40
2023-06-22T19:09:14.640Z,94521.20
2023-06-22T19:11:40.983Z,94520.00
2023-06-22T19:14:07.187Z,94521.40
2023-06-22T19:16:33.389Z,94525.40
2023-06-22T19:19:00.603Z,94529.60
2023-06-22T19:21:26.827Z,94530.20
2023-06-22T19:23:53.222Z,94533.60
2023-06-22T19:26:19.319Z,94533.40
2023-06-22T19:28:46.488Z,94535.60
2023-06-22T19:31:12.805Z,94535.40
2023-06-22T19:33:39.017Z,94538.00
2023-06-22T19:36:05.397Z,94538.40
2023-06-22T19:38:33.149Z,94538.80
2023-06-22T19:40:59.368Z,94540.20
2023-06-22T19:43:25.780Z,94539.00
2023-06-22T19:45:51.967Z,94547.20
2023-06-22T19:48:18.153Z,94543.60
2023-06-22T19:50:44.597Z,94545.00
2023-06-22T19:53:10.807Z,94544.60
2023-06-22T19:55:37.319Z,94538.00
2023-06-22T19:58:03.602Z,94543.00
2023-06-22T20:00:30.093Z,94535.20
2023-06-22T20:02:56.268Z,94527.80
2023-06-22T20:05:23.499Z,94528.60
2023-06-22T20:07:49.671Z,94528.80
2023-06-22T20:10:16.176Z,94527.80
2023-06-22T20:12:42.480Z,94524.20
2023-06-22T20:15:08.705Z,94524.00
2023-06-22T20:17:37.381Z,94525.40
2023-06-22T20:20:05.284Z,94525.60
2023-06-22T20:22:31.545Z,94529.60
2023-06-22T20:24:57.894Z,94533.20
2023-06-22T20:27:24.059Z,94537.80
2023-06-22T20:29:50.260Z,94535.80
2023-06-22T20:32:16.520Z,94532.60
2023-06-22T20:34:44.979Z,94530.80
2023-06-22T20:37:11.306Z,94530.20
2023-06-22T20:39:37.627Z,94520.40
2023-06-22T20:42:04.729Z,94515.40
2023-06-22T20:44:31.175Z,94511.60
2023-06-22T20:46:57.366Z,94507.40
2023-06-22T20:49:23.656Z,94502.20
2023-06-22T20:51:49.855Z,94497.00
2023-06-22T20:54:17.956Z,94492.60
2023-06-22T20:56:44.142Z,94491.20
2023-06-22T20:59:10.287Z,94488.80
2023-06-22T21:01:36.605Z,94483.40
2023-06-22T21:04:02.881Z,94486.00
2023-06-22T21:06:29.105Z,94484.00
2023-06-22T21:08:55.242Z,94484.00
2023-06-22T21:11:21.642Z,94478.80
2023-06-22T21:13:47.760Z,94473.80
2023-06-22T21:16:13.978Z,94474.40
2023-06-22T21:18:40.083Z,94476.00
2023-06-22T21:21:06.265Z,94481.80
2023-06-22T21:23:32.444Z,94480.40
2023-06-22T21:25:58.665Z,94473.20
2023-06-22T21:28:25.833Z,94471.00
2023-06-22T21:30:52.051Z,94466.20
2023-06-22T21:33:18.575Z,94470.80
2023-06-22T21:35:44.788Z,94474.20
2023-06-22T21:38:11.048Z,94475.40
2023-06-22T21:40:37.202Z,94470.60
2023-06-22T21:43:04.868Z,94472.00
2023-06-22T21:45:32.051Z,94467.80
2023-06-22T21:47:58.559Z,94465.80
2023-06-22T21:50:24.721Z,94460.00
2023-06-22T21:52:51.161Z,94456.00
2023-06-22T21:55:17.307Z,94455.40
2023-06-22T21:57:43.434Z,94449.60
2023-06-22T22:00:11.582Z,94450.20
2023-06-22T22:02:37.768Z,94444.40
2023-06-22T22:05:04.101Z,94444.80
2023-06-22T22:07:30.845Z,94442.60
2023-06-22T22:09:57.111Z,94445.00
2023-06-22T22:12:23.346Z,94441.20
2023-06-22T22:14:49.676Z,94436.20
2023-06-22T22:17:15.781Z,94428.00
2023-06-22T22:19:42.079Z,94426.60
2023-06-22T22:22:08.303Z,94422.80
2023-06-22T22:24:34.424Z,94419.20
2023-06-22T22:27:00.885Z,94418.60
2023-06-22T22:29:30.231Z,94415.80
2023-06-22T22:31:56.424Z,94412.80
2023-06-22T22:34:22.533Z,94409.80
2023-06-22T22:36:48.705Z,94413.20
2023-06-22T22:39:14.908Z,94411.60
2023-06-22T22:41:41.037Z,94404.00
2023-06-22T22:44:07.176Z,94398.80
2023-06-22T22:46:35.345Z,94395.40
2023-06-22T22:49:01.885Z,94388.00
2023-06-22T22:51:28.000Z,94383.20
2023-06-22T22:53:54.215Z,94373.60
2023-06-22T22:56:20.628Z,94369.00
2023-06-22T22:58:46.764Z,94366.00
2023-06-22T23:01:12.899Z,94357.20
2023-06-22T23:03:39.288Z,94362.00
2023-06-22T23:06:05.837Z,94362.60
2023-06-22T23:08:32.120Z,94360.00
2023-06-22T23:10:58.261Z,94360.00
2023-06-22T23:13:24.373Z,94358.40
2023-06-22T23:15:51.756Z,94350.20
2023-06-22T23:18:18.810Z,94345.40
2023-06-22T23:20:44.972Z,94334.00
2023-06-22T23:23:11.081Z,94329.40
2023-06-22T23:25:38.569Z,94324.00
2023-06-22T23:28:06.108Z,94321.20
2023-06-22T23:30:32.215Z,94322.60
2023-06-22T23:32:58.493Z,94321.00
2023-06-22T23:35:24.763Z,94317.20
2023-06-22T23:37:53.177Z,94316.20
2023-06-22T23:40:19.934Z,94317.40
2023-06-22T23:42:47.115Z,94315.00
2023-06-22T23:45:13.829Z,94315.00
2023-06-22T23:47:40.334Z,94316.60
2023-06-22T23:50:06.987Z,94315.00
2023-06-22T23:52:33.266Z,94319.00
2023-06-22T23:54:59.466Z,94324.40
2023-06-22T23:57:25.607Z,94318.00
2023-06-22T23:59:52.572Z,94317.20
